DW5321 Paradera AW current weather conditions

sailwx.info

Wind from 101 at 6 knots gusting 10

Air temperature 25.0° C
Dewpoint 22.9° C

Last reported at 2017-Jan-19 05:48 UTC.
Time now 2017-Jan-19 06:40 UTC

Location: N 12°33' W 070°00'.
View on Google Maps.

See reports from other nearby stations

  
Tides and Currents Weather Stations Pressure Air Temp Water Temp Dewpoint Dewpoint Depression Visibility Wind Speed Wind Dir Waves Ship Positions
date/time (UTC)wind fromknots sea level pressurealtimeterstation pressurevisibilityair tempwater tempwave heightnotes
2017-Jan-19 05:48 101 6 gusting 10 25.0
2017-Jan-19 05:33 081 3 gusting 6 25.0
2017-Jan-19 05:18 084 2 gusting 6 25.0
2017-Jan-19 05:02 078 4 gusting 9 25.0
2017-Jan-19 04:47 082 2 gusting 7 25.0
2017-Jan-19 04:32 077 6 gusting 9 25.0
2017-Jan-19 04:17 080 3 gusting 7 25.0
2017-Jan-19 04:02 097 4 gusting 10 25.0
2017-Jan-19 03:47 089 5 gusting 12 25.0
2017-Jan-19 03:17 072 2 gusting 8 25.0
2017-Jan-19 03:02 068 6 gusting 9 25.0
2017-Jan-19 02:47 117 3 gusting 6 25.0
2017-Jan-19 02:32 083 3 gusting 6 25.0
2017-Jan-19 02:15 086 2 gusting 6 25.6
2017-Jan-19 02:00 079 2 gusting 7 25.6
2017-Jan-19 01:45 084 4 gusting 6 25.6
2017-Jan-19 01:30 090 3 gusting 10 25.6
2017-Jan-19 01:15 090 4 gusting 8 25.6
2017-Jan-19 01:00 100 3 gusting 6 25.6
2017-Jan-19 00:44 083 3 gusting 9 25.0
2017-Jan-19 00:29 099 2 gusting 5 25.0
2017-Jan-19 00:14 108 2 gusting 5 25.0
2017-Jan-19 00:00 111 2 gusting 6 25.0
2017-Jan-18 23:43 103 3 gusting 6 25.0
2017-Jan-18 23:28 101 1 gusting 6 25.0
2017-Jan-18 22:58 064 1 gusting 4 25.6
2017-Jan-18 22:43 071 2 gusting 5 25.6
2017-Jan-18 22:28 096 1 gusting 4 25.6
2017-Jan-18 22:12 100 2 gusting 5 25.6
2017-Jan-18 21:57 113 4 gusting 6 25.6
2017-Jan-18 21:42 118 3 gusting 7 25.6
2017-Jan-18 21:27 106 5 gusting 8 25.6
2017-Jan-18 21:12 090 9 gusting 15 26.7
2017-Jan-18 20:57 077 7 gusting 11 26.7
2017-Jan-18 20:42 120 4 gusting 10 26.7
2017-Jan-18 20:27 098 5 gusting 12 26.7
2017-Jan-18 20:12 077 3 gusting 8 25.6
2017-Jan-18 19:57 104 2 gusting 6 25.6
2017-Jan-18 19:40 117 6 gusting 14 26.1
2017-Jan-18 19:25 040 5 gusting 11 27.2
2017-Jan-18 19:10 073 5 gusting 10 27.2
2017-Jan-18 18:55 066 5 gusting 10 27.2
2017-Jan-18 18:40 120 6 gusting 10 26.1
2017-Jan-18 18:25 039 6 gusting 13 27.8
2017-Jan-18 18:09 091 6 gusting 12 27.8
2017-Jan-18 17:54 042 5 gusting 15 27.8
2017-Jan-18 17:39 060 6 gusting 12 28.3
2017-Jan-18 17:24 094 5 gusting 11 27.8
2017-Jan-18 17:09 107 6 gusting 13 27.8
2017-Jan-18 16:53 125 7 gusting 12 27.8
2017-Jan-18 16:38 100 6 gusting 11 27.8
2017-Jan-18 16:23 074 7 gusting 11 27.8
2017-Jan-18 16:08 063 6 gusting 12 27.8
2017-Jan-18 15:53 041 6 gusting 14 27.8
2017-Jan-18 15:37 080 5 gusting 12 27.2
2017-Jan-18 15:22 077 8 gusting 13 27.2
2017-Jan-18 15:07 114 6 gusting 12 27.2
2017-Jan-18 14:52 113 6 gusting 16 26.7
2017-Jan-18 14:37 062 5 gusting 15 27.2
2017-Jan-18 14:22 066 7 gusting 13 26.7
2017-Jan-18 14:07 077 6 gusting 11 26.7
2017-Jan-18 13:52 084 7 gusting 14 26.7
2017-Jan-18 13:37 117 6 gusting 13 26.7
2017-Jan-18 13:21 097 6 gusting 13 26.1
2017-Jan-18 13:06 071 5 gusting 10 26.1
2017-Jan-18 12:50 074 6 gusting 12 26.1
2017-Jan-18 12:35 086 3 gusting 11 25.0
2017-Jan-18 12:19 082 3 gusting 7 25.0
2017-Jan-18 12:04 073 4 gusting 8 25.0
2017-Jan-18 11:49 079 3 gusting 6 24.4
2017-Jan-18 11:34 095 2 gusting 8 24.4
2017-Jan-18 11:19 104 1 gusting 5 24.4
2017-Jan-18 11:03 117 2 gusting 6 24.4
2017-Jan-18 10:48 107 2 gusting 5 24.4
2017-Jan-18 10:32 113 3 gusting 7 24.4
2017-Jan-18 10:17 104 2 gusting 5 24.4
2017-Jan-18 10:02 075 1 gusting 5 23.9
2017-Jan-18 09:47 090 2 gusting 5 23.9
2017-Jan-18 09:31 089 2 gusting 5 23.9
2017-Jan-18 09:16 114 2 gusting 6 23.9
2017-Jan-18 09:01 089 1 gusting 5 23.9
2017-Jan-18 08:47 084 3 gusting 8 24.4
2017-Jan-18 08:31 129 6 gusting 11 24.4
2017-Jan-18 08:16 101 3 gusting 6 24.4
2017-Jan-18 08:01 090 3 gusting 7 24.4
2017-Jan-18 07:46 121 2 gusting 6 24.4
2017-Jan-18 07:30 121 4 gusting 6 24.4
2017-Jan-18 07:14 111 2 gusting 5 24.4
2017-Jan-18 06:59 117 3 gusting 6 24.4
2017-Jan-18 06:44 076 3 gusting 6 24.4
2017-Jan-18 06:28 097 3 gusting 6 24.4
2017-Jan-18 06:14 108 3 gusting 7 24.4
2017-Jan-18 05:58 079 4 gusting 8 24.4
2017-Jan-18 05:42 064 3 gusting 8 24.4
2017-Jan-18 05:27 106 4 gusting 7 23.9
2017-Jan-18 05:13 079 4 gusting 7 23.9
2017-Jan-18 04:57 084 4 gusting 11 23.9
2017-Jan-18 04:42 070 3 gusting 8 23.9
2017-Jan-18 04:26 089 3 gusting 6 24.4
2017-Jan-18 04:11 079 5 gusting 8 24.4
2017-Jan-18 03:56 061 5 gusting 9 24.4
2017-Jan-18 03:41 096 5 gusting 9 24.4
2017-Jan-18 03:26 089 4 gusting 10 24.4
2017-Jan-18 03:10 065 3 gusting 10 23.9
2017-Jan-18 02:56 095 5 gusting 16 23.9
2017-Jan-18 02:39 086 3 gusting 6 24.4
2017-Jan-18 02:25 082 2 gusting 6 23.9
2017-Jan-18 02:09 101 4 gusting 10 23.9
2017-Jan-18 01:54 086 4 gusting 8 23.9
2017-Jan-18 01:39 062 3 gusting 6 23.9
2017-Jan-18 01:24 075 3 gusting 6 23.9
2017-Jan-18 01:08 096 1 gusting 5 23.3
2017-Jan-18 00:53 071 1 gusting 5 23.3
2017-Jan-18 00:38 086 1 gusting 6 23.3
2017-Jan-18 00:23 073 2 gusting 10 23.3
2017-Jan-18 00:07 080 4 gusting 7 24.4
2017-Jan-17 23:52 063 3 gusting 6 23.9
2017-Jan-17 23:37 061 2 gusting 5 23.9
2017-Jan-17 23:21 073 1 gusting 6 23.3
2017-Jan-17 23:06 030 1 gusting 6 23.9
2017-Jan-17 22:51 068 4 gusting 11 23.9
2017-Jan-17 22:36 087 8 gusting 12 25.6
2017-Jan-17 22:21 104 3 gusting 8 25.6
2017-Jan-17 22:06 084 3 gusting 8 25.6
2017-Jan-17 21:51 051 4 gusting 9 25.6
2017-Jan-17 21:36 093 3 gusting 6 25.0
2017-Jan-17 21:21 101 8 gusting 11 25.6
2017-Jan-17 21:07 105 3 gusting 8 25.0
2017-Jan-17 20:51 089 2 gusting 6 26.1
2017-Jan-17 20:36 105 4 gusting 11 26.1
2017-Jan-17 20:21 051 6 gusting 13 26.7
2017-Jan-17 20:07 064 4 gusting 11 26.7
2017-Jan-17 19:51 009 6 gusting 12 26.7
2017-Jan-17 19:36 051 5 gusting 11 26.7
2017-Jan-17 19:21 076 5 gusting 10 26.1
2017-Jan-17 19:06 110 7 gusting 12 26.1
2017-Jan-17 18:51 064 9 gusting 16 27.2
2017-Jan-17 18:36 077 6 gusting 12 27.2
2017-Jan-17 18:22 062 6 gusting 11 28.3
2017-Jan-17 18:06 104 6 gusting 12 28.3
2017-Jan-17 17:51 077 5 gusting 12 28.3
2017-Jan-17 17:36 040 6 gusting 13 28.3
2017-Jan-17 17:21 085 7 gusting 12 28.3
2017-Jan-17 17:06 075 6 gusting 12 28.3
2017-Jan-17 16:51 041 5 gusting 10 28.3
2017-Jan-17 16:37 088 6 gusting 10 27.8
2017-Jan-17 16:21 127 7 gusting 12 27.8
2017-Jan-17 16:06 083 5 gusting 11 27.8
2017-Jan-17 15:51 056 5 gusting 11 27.8
2017-Jan-17 15:36 079 6 gusting 13 27.8
2017-Jan-17 15:21 105 4 gusting 12 27.8
2017-Jan-17 14:51 063 6 gusting 13 27.2
2017-Jan-17 14:36 094 5 gusting 10 27.2
2017-Jan-17 14:21 074 5 gusting 10 27.2
2017-Jan-17 14:06 077 5 gusting 9 27.2
2017-Jan-17 13:51 086 6 gusting 11 26.7
2017-Jan-17 13:36 336 5 gusting 10 26.7
2017-Jan-17 13:21 068 6 gusting 13 26.7
2017-Jan-17 13:06 091 6 gusting 8 26.7
2017-Jan-17 12:51 077 6 gusting 9 26.1
2017-Jan-17 12:35 094 3 gusting 7 25.6
2017-Jan-17 12:20 087 2 gusting 6 25.6
2017-Jan-17 12:06 068 1 gusting 6 25.0
2017-Jan-17 11:50 095 4 gusting 7 25.0
2017-Jan-17 11:36 090 3 gusting 7 25.0
2017-Jan-17 11:20 084 3 gusting 6 24.4
2017-Jan-17 11:05 086 4 gusting 6 24.4
2017-Jan-17 10:50 084 3 gusting 6 24.4
2017-Jan-17 10:35 082 4 gusting 7 24.4
2017-Jan-17 10:20 075 1 gusting 5 24.4
2017-Jan-17 10:05 084 3 gusting 6 24.4
2017-Jan-17 09:50 093 2 gusting 6 24.4
2017-Jan-17 09:20 090 3 gusting 6 24.4
2017-Jan-17 09:05 075 2 gusting 6 24.4
2017-Jan-17 08:50 078 2 gusting 6 24.4
2017-Jan-17 08:35 080 1 gusting 5 24.4
2017-Jan-17 08:20 084 4 gusting 7 24.4
2017-Jan-17 08:05 077 2 gusting 6 24.4
2017-Jan-17 07:51 082 2 gusting 7 24.4
2017-Jan-17 07:35 092 1 gusting 5 24.4
2017-Jan-17 07:20 095 0 gusting 3 24.4
2017-Jan-17 07:05 079 2 gusting 4 24.4
2017-Jan-17 06:50 082 1 gusting 5 24.4
2017-Jan-17 06:35 089 1 gusting 5 24.4
2017-Jan-17 06:20 084 0 gusting 3 24.4
2017-Jan-17 06:05 113 24.4